Time;durP1;ratioP1;P1;durP2;ratioP2;P2;SDS_P1;SDS_P2;PMS_P1;PMS_P2;Temp;Humidity;BMP_temperature;BMP_pressure;BME280_temperature;BME280_humidity;BME280_pressure;Samples;Min_cycle;Max_cycle;Signal;HPM_P1;HPM_P2
2022/01/22 00:02:23;;;;;;;1999.90;999.90;;;7.40;99.90;;;;;;5052958;28;20456;-66
2022/01/22 00:04:49;;;;;;;1999.90;999.90;;;7.10;99.90;;;;;;5051949;28;20057;-66
2022/01/22 00:07:16;;;;;;;1999.90;999.90;;;6.70;99.90;;;;;;5046054;28;20140;-66
2022/01/22 00:09:48;;;;;;;1999.90;999.90;;;6.90;99.90;;;;;;5032485;28;20052;-66
2022/01/22 00:12:26;;;;;;;1999.90;999.90;;;6.90;99.90;;;;;;5034359;28;20514;-66
2022/01/22 00:14:52;;;;;;;1999.90;999.90;;;6.90;99.90;;;;;;5061093;28;20390;-66
2022/01/22 00:17:18;;;;;;;1999.90;999.90;;;7.10;99.90;;;;;;5072633;28;20040;-66
2022/01/22 00:19:44;;;;;;;1999.90;999.90;;;7.40;99.90;;;;;;5071781;28;20045;-66
2022/01/22 00:22:09;;;;;;;1999.90;999.90;;;7.10;99.90;;;;;;5063353;28;20061;-66
2022/01/22 00:24:38;;;;;;;1999.90;999.90;;;7.00;99.90;;;;;;5047260;28;20121;-66
2022/01/22 00:27:05;;;;;;;1999.90;999.90;;;7.00;99.90;;;;;;5031901;28;20049;-65
2022/01/22 00:29:31;;;;;;;1999.90;999.90;;;7.00;99.90;;;;;;5032299;28;20077;-66
2022/01/22 00:31:57;;;;;;;1999.90;999.90;;;7.10;99.90;;;;;;5031835;28;20436;-66
2022/01/22 00:34:22;;;;;;;1999.90;999.90;;;7.40;99.90;;;;;;5032483;28;20488;-66
2022/01/22 00:36:49;;;;;;;1999.90;999.90;;;6.90;99.90;;;;;;5032538;28;20061;-66
2022/01/22 00:39:15;;;;;;;1999.90;999.90;;;6.80;99.90;;;;;;5032153;28;20049;-65
2022/01/22 00:41:41;;;;;;;1999.90;999.90;;;7.00;99.90;;;;;;5032867;28;20076;-65
2022/01/22 00:44:07;;;;;;;1999.90;999.90;;;7.10;99.90;;;;;;5034534;28;20115;-66
2022/01/22 00:46:33;;;;;;;1999.90;999.90;;;7.00;99.90;;;;;;5035853;28;20049;-66
2022/01/22 00:48:59;;;;;;;1999.90;999.90;;;7.10;99.90;;;;;;5034426;28;20056;-66
2022/01/22 00:51:26;;;;;;;1999.90;999.90;;;6.90;99.90;;;;;;5033941;28;20072;-66
2022/01/22 00:53:52;;;;;;;1999.90;999.90;;;7.10;99.90;;;;;;5032063;28;20061;-66
2022/01/22 00:56:18;;;;;;;1999.90;999.90;;;6.80;99.90;;;;;;5032873;28;20053;-65
2022/01/22 00:58:44;;;;;;;1999.90;999.90;;;6.90;99.90;;;;;;5032497;28;20391;-66
2022/01/22 01:01:09;;;;;;;1999.90;999.90;;;7.00;99.90;;;;;;5033203;28;20403;-65
2022/01/22 01:03:35;;;;;;;1999.90;999.90;;;7.20;99.90;;;;;;5032481;28;20050;-66
2022/01/22 01:06:03;;;;;;;1999.90;999.90;;;7.00;99.90;;;;;;5050606;28;20072;-65
2022/01/22 01:08:32;;;;;;;1999.90;999.90;;;6.90;99.90;;;;;;5053166;28;20052;-65
2022/01/22 01:10:58;;;;;;;1999.90;999.90;;;7.00;99.90;;;;;;5052478;28;20049;-66
2022/01/22 01:13:26;;;;;;;1999.90;999.90;;;6.90;99.90;;;;;;5027110;28;20057;-65
2022/01/22 01:16:03;;;;;;;1999.90;999.90;;;6.90;99.90;;;;;;5051697;28;20056;-65
2022/01/22 01:32:18;;;;;;;1999.90;999.90;;;7.00;99.90;;;;;;5053467;28;20139;-66
2022/01/22 01:34:45;;;;;;;1999.90;999.90;;;7.10;99.90;;;;;;5052160;28;20045;-66
2022/01/22 01:37:15;;;;;;;1999.90;999.90;;;7.10;99.90;;;;;;5051992;28;20057;-65
2022/01/22 01:39:42;;;;;;;1999.90;999.90;;;7.00;99.90;;;;;;5052518;28;20438;-65
2022/01/22 01:42:14;;;;;;;1999.90;999.90;;;7.10;99.90;;;;;;5053824;28;20052;-66
2022/01/22 01:44:42;;;;;;;1999.90;999.90;;;6.80;99.90;;;;;;5054069;28;20544;-65
2022/01/22 01:47:25;;;;;;;;;;;7.20;99.90;;;;;;5054537;28;20119;-65
2022/01/22 01:49:51;;;;;;;1999.90;999.90;;;6.90;99.90;;;;;;5070119;28;19967;-66
2022/01/22 01:52:38;;;;;;;1999.90;999.90;;;7.00;99.90;;;;;;5053924;28;20084;-66
2022/01/22 01:55:12;;;;;;;1999.90;999.90;;;7.00;99.90;;;;;;5053864;28;20045;-65
2022/01/22 01:57:40;;;;;;;1999.90;999.90;;;6.80;99.90;;;;;;5036641;28;20055;-65
2022/01/22 02:00:12;;;;;;;1999.90;999.90;;;7.10;99.90;;;;;;5053359;28;20061;-65
2022/01/22 02:02:48;;;;;;;1999.90;999.90;;;6.80;99.90;;;;;;5054165;28;20048;-65
2022/01/22 02:05:21;;;;;;;1999.90;999.90;;;7.20;99.90;;;;;;5060740;28;20055;-66
2022/01/22 02:07:48;;;;;;;1999.90;999.90;;;7.00;99.90;;;;;;5037144;28;20080;-66
2022/01/22 02:10:21;;;;;;;1999.90;999.90;;;7.00;99.90;;;;;;5052769;28;20110;-65
2022/01/22 02:23:50;;;;;;;1999.90;999.90;;;6.80;99.90;;;;;;5053452;28;20041;-65
2022/01/22 02:26:16;;;;;;;1999.90;999.90;;;7.00;99.90;;;;;;5052791;28;20517;-65
2022/01/22 02:28:48;;;;;;;1999.90;999.90;;;6.70;99.90;;;;;;5053069;28;20087;-65
2022/01/22 02:31:25;;;;;;;1999.90;999.90;;;6.80;99.90;;;;;;5053177;28;20045;-65
2022/01/22 02:36:35;;;;;;;1999.90;999.90;;;7.10;99.90;;;;;;5053035;28;20545;-65
2022/01/22 02:41:48;;;;;;;1999.90;999.90;;;6.60;99.90;;;;;;5054223;28;20049;-65
2022/01/22 02:44:32;;;;;;;1999.90;999.90;;;6.70;99.90;;;;;;5052946;28;20048;-65
2022/01/22 02:46:59;;;;;;;1999.90;999.90;;;6.90;99.90;;;;;;5035689;28;20555;-65
2022/01/22 02:49:26;;;;;;;1999.90;999.90;;;6.90;99.90;;;;;;5053930;28;20049;-65
2022/01/22 02:51:51;;;;;;;1999.90;999.90;;;6.70;99.90;;;;;;5050260;28;20044;-65
2022/01/22 02:54:17;;;;;;;1999.90;999.90;;;6.80;99.90;;;;;;5049847;28;20457;-65
2022/01/22 02:56:43;;;;;;;1999.90;999.90;;;6.70;99.90;;;;;;5050944;28;20049;-65
2022/01/22 02:59:09;;;;;;;1999.90;999.90;;;6.70;99.90;;;;;;5052699;28;20107;-65
2022/01/22 03:01:35;;;;;;;1999.90;999.90;;;6.90;99.90;;;;;;5051926;28;20107;-65
2022/01/22 03:04:01;;;;;;;1999.90;999.90;;;6.60;99.90;;;;;;5052643;28;20472;-65
2022/01/22 03:06:26;;;;;;;1999.90;999.90;;;6.60;99.90;;;;;;5051495;28;20132;-64
2022/01/22 03:08:52;;;;;;;1999.90;999.90;;;6.70;99.90;;;;;;5051938;28;20118;-65
2022/01/22 03:11:23;;;;;;;1999.90;999.90;;;6.60;99.90;;;;;;5052661;28;20077;-65
2022/01/22 03:14:54;;;;;;;1999.90;999.90;;;7.00;99.90;;;;;;5051694;28;20041;-65
2022/01/22 03:16:55;;;;;;;1999.90;999.90;;;6.80;99.90;;;;;;5072066;28;20083;-65
2022/01/22 03:19:56;;;;;;;1999.90;999.90;;;6.80;99.90;;;;;;5069849;28;20044;-65
2022/01/22 03:22:22;;;;;;;1999.90;999.90;;;7.10;99.90;;;;;;5069118;28;20390;-65
2022/01/22 03:27:33;;;;;;;1999.90;999.90;;;6.90;99.90;;;;;;5049688;28;20052;-65
2022/01/22 03:30:00;;;;;;;1999.90;999.90;;;6.70;99.90;;;;;;5050904;28;20136;-65
2022/01/22 03:32:31;;;;;;;1999.90;999.90;;;6.90;99.90;;;;;;5051402;28;20049;-65
2022/01/22 03:35:09;;;;;;;1999.90;999.90;;;6.70;99.90;;;;;;5048823;28;20049;-65
2022/01/22 03:37:35;;;;;;;1999.90;999.90;;;6.60;99.90;;;;;;5051030;28;20045;-65
2022/01/22 03:40:01;;;;;;;1999.90;999.90;;;6.80;99.90;;;;;;5051025;28;20049;-65
2022/01/22 03:42:28;;;;;;;1999.90;999.90;;;6.90;99.90;;;;;;5048864;28;20103;-65
2022/01/22 03:44:54;;;;;;;1999.90;999.90;;;6.60;99.90;;;;;;5049808;28;20049;-65
2022/01/22 03:47:21;;;;;;;1999.90;999.90;;;6.50;99.90;;;;;;5049535;28;20506;-65
2022/01/22 03:49:47;;;;;;;1999.90;999.90;;;7.00;99.90;;;;;;5048586;28;20049;-65
2022/01/22 03:52:17;;;;;;;1999.90;999.90;;;6.80;99.90;;;;;;5049648;28;20049;-65
2022/01/22 03:54:43;;;;;;;1999.90;999.90;;;6.70;99.90;;;;;;5049689;28;20048;-65
2022/01/22 03:57:10;;;;;;;1999.90;999.90;;;6.70;99.90;;;;;;5048577;28;20335;-65
2022/01/22 03:59:45;;;;;;;1999.90;999.90;;;6.70;99.90;;;;;;5049351;28;20488;-65
2022/01/22 04:02:59;;;;;;;1999.90;999.90;;;6.60;99.90;;;;;;5049606;28;20084;-65
2022/01/22 04:05:15;;;;;;;1999.90;999.90;;;6.50;99.90;;;;;;5048908;28;20055;-66
2022/01/22 04:10:17;;;;;;;1999.90;999.90;;;6.60;99.90;;;;;;5048425;28;20053;-65
2022/01/22 04:15:20;;;;;;;1999.90;999.90;;;7.00;99.90;;;;;;5063206;28;20091;-65
2022/01/22 04:25:55;;;;;;;1999.90;999.90;;;6.60;99.90;;;;;;5052751;28;20051;-65
2022/01/22 04:28:21;;;;;;;1999.90;999.90;;;6.50;99.90;;;;;;5055237;28;20053;-65
2022/01/22 04:30:47;;;;;;;1999.90;999.90;;;6.90;99.90;;;;;;5056522;28;20127;-65
2022/01/22 04:33:13;;;;;;;1999.90;999.90;;;6.70;99.90;;;;;;5055837;28;20475;-65
2022/01/22 04:35:38;;;;;;;1999.90;999.90;;;6.70;99.90;;;;;;5055238;28;20041;-65
2022/01/22 04:38:04;;;;;;;1999.90;999.90;;;6.50;99.90;;;;;;5054613;28;20041;-65
2022/01/22 04:40:30;;;;;;;1999.90;999.90;;;6.80;99.90;;;;;;5054919;28;20134;-65
2022/01/22 04:42:57;;;;;;;1999.90;999.90;;;6.60;99.90;;;;;;5056191;28;20376;-65
2022/01/22 04:47:57;;;;;;;1999.90;999.90;;;6.60;99.90;;;;;;5055291;28;20056;-65
2022/01/22 04:55:35;;;;;;;1999.90;999.90;;;6.50;99.90;;;;;;5054667;28;20041;-65
2022/01/22 04:58:07;;;;;;;1999.90;999.90;;;6.80;99.90;;;;;;5054898;28;20052;-65
2022/01/22 05:00:35;;;;;;;;;;;6.50;99.90;;;;;;5054443;28;20479;-65
2022/01/22 05:03:26;;;;;;;1999.90;999.90;;;6.30;99.90;;;;;;5054580;28;19974;-64
2022/01/22 05:06:00;;;;;;;1999.90;999.90;;;6.70;99.90;;;;;;5054699;28;20229;-65
2022/01/22 05:08:30;;;;;;;1999.90;999.90;;;6.60;99.90;;;;;;5034223;28;20426;-65
2022/01/22 05:11:08;;;;;;;1999.90;999.90;;;6.60;99.90;;;;;;5034153;28;20444;-65
2022/01/22 05:13:35;;;;;;;1999.90;999.90;;;6.90;99.90;;;;;;5048443;28;20065;-65
2022/01/22 05:16:04;;;;;;;1999.90;999.90;;;6.50;99.90;;;;;;5074593;28;20051;-65
2022/01/22 05:18:37;;;;;;;1999.90;999.90;;;6.50;99.90;;;;;;5074290;28;20493;-64
2022/01/22 05:21:09;;;;;;;1999.90;999.90;;;6.60;99.90;;;;;;5073733;28;20055;-65
2022/01/22 05:23:36;;;;;;;1999.90;999.90;;;6.70;99.90;;;;;;5064402;28;20037;-64
2022/01/22 05:26:07;;;;;;;1999.90;999.90;;;6.50;99.90;;;;;;5053815;28;20395;-65
2022/01/22 05:37:26;;;;;;;1999.90;999.90;;;6.70;99.90;;;;;;5054328;28;20049;-65
2022/01/22 05:39:52;;;;;;;1999.90;999.90;;;6.70;99.90;;;;;;5053771;28;20110;-64
2022/01/22 05:42:18;;;;;;;1999.90;999.90;;;6.80;99.90;;;;;;5053509;28;20476;-65
2022/01/22 05:44:44;;;;;;;1999.90;999.90;;;6.70;99.90;;;;;;5055140;28;20059;-64
2022/01/22 05:47:09;;;;;;;1999.90;999.90;;;6.50;99.90;;;;;;5054069;28;20056;-64
2022/01/22 05:49:40;;;;;;;1999.90;999.90;;;6.70;99.90;;;;;;5054036;28;20071;-64
2022/01/22 05:52:09;;;;;;;1999.90;999.90;;;6.60;99.90;;;;;;5054044;28;20087;-65
2022/01/22 05:54:54;;;;;;;1999.90;999.90;;;6.70;99.90;;;;;;5054944;28;20049;-65
2022/01/22 06:00:09;;;;;;;1999.90;999.90;;;6.40;99.90;;;;;;5053742;28;20053;-65
2022/01/22 06:02:45;;;;;;;1999.90;999.90;;;6.50;99.90;;;;;;5053918;28;20444;-65
2022/01/22 06:05:12;;;;;;;1999.90;999.90;;;6.50;99.90;;;;;;5037157;28;20041;-65
2022/01/22 06:07:38;;;;;;;1999.90;999.90;;;6.90;99.90;;;;;;5053367;28;20475;-64
2022/01/22 06:10:16;;;;;;;1999.90;999.90;;;6.60;99.90;;;;;;5052039;28;20092;-65
2022/01/22 06:12:57;;;;;;;1999.90;999.90;;;6.50;99.90;;;;;;5051975;28;20136;-65
2022/01/22 06:15:25;;;;;;;1999.90;999.90;;;6.60;99.90;;;;;;5065113;28;20036;-65
2022/01/22 06:18:12;;;;;;;1999.90;999.90;;;6.70;99.90;;;;;;5073415;28;20052;-64
2022/01/22 06:20:38;;;;;;;1999.90;999.90;;;6.70;99.90;;;;;;5073463;28;20132;-65
2022/01/22 06:23:05;;;;;;;1999.90;999.90;;;6.70;99.90;;;;;;5067521;28;20076;-65
2022/01/22 06:25:31;;;;;;;1999.90;999.90;;;6.60;99.90;;;;;;5035413;28;20045;-65
2022/01/22 06:27:57;;;;;;;1999.90;999.90;;;6.60;99.90;;;;;;5053285;28;20080;-65
2022/01/22 06:30:24;;;;;;;1999.90;999.90;;;6.60;99.90;;;;;;5052848;28;20487;-64
2022/01/22 06:32:53;;;;;;;1999.90;999.90;;;6.30;99.90;;;;;;5052723;28;20048;-65
2022/01/22 06:35:19;;;;;;;1999.90;999.90;;;6.50;99.90;;;;;;5052979;28;20521;-65
2022/01/22 06:37:45;;;;;;;1999.90;999.90;;;6.80;99.90;;;;;;5052325;28;20049;-65
2022/01/22 06:43:33;;;;;;;1999.90;999.90;;;6.80;99.90;;;;;;5054316;28;20056;-65
2022/01/22 06:46:23;;;;;;;1999.90;999.90;;;6.80;99.90;;;;;;5050551;28;20077;-65
2022/01/22 06:49:15;;;;;;;1999.90;999.90;;;6.60;99.90;;;;;;5051484;28;20045;-65
2022/01/22 06:52:00;;;;;;;1999.90;999.90;;;6.60;99.90;;;;;;5049456;28;20068;-65
2022/01/22 06:54:27;;;;;;;1999.90;999.90;;;6.80;99.90;;;;;;5050147;28;20049;-65
2022/01/22 06:56:52;;;;;;;1999.90;999.90;;;6.70;99.90;;;;;;5050280;28;20128;-65
2022/01/22 06:59:20;;;;;;;1999.90;999.90;;;6.80;99.90;;;;;;5050846;28;20141;-65
2022/01/22 07:01:49;;;;;;;1999.90;999.90;;;6.80;99.90;;;;;;5050294;28;20056;-65
2022/01/22 07:04:20;;;;;;;1999.90;999.90;;;6.60;99.90;;;;;;5049603;28;20053;-65
2022/01/22 07:07:09;;;;;;;1999.90;999.90;;;6.80;99.90;;;;;;5050125;28;20056;-65
2022/01/22 07:09:36;;;;;;;1999.90;999.90;;;6.80;99.90;;;;;;5051031;28;20061;-66
2022/01/22 07:12:03;;;;;;;1999.90;999.90;;;6.40;99.90;;;;;;5050135;28;20471;-65
2022/01/22 07:14:29;;;;;;;1999.90;999.90;;;6.40;99.90;;;;;;5043490;28;20546;-65
2022/01/22 07:16:56;;;;;;;1999.90;999.90;;;6.50;99.90;;;;;;5049503;28;20410;-65
2022/01/22 07:19:38;;;;;;;1999.90;999.90;;;6.90;99.90;;;;;;5049679;28;20045;-65
2022/01/22 07:25:04;;;;;;;1999.90;999.90;;;6.80;99.90;;;;;;5029694;28;20061;-66
2022/01/22 07:27:30;;;;;;;1999.90;999.90;;;6.30;99.90;;;;;;5012732;28;20057;-65
2022/01/22 07:29:56;;;;;;;1999.90;999.90;;;6.60;99.90;;;;;;5029843;28;20056;-66
2022/01/22 07:32:30;;;;;;;1999.90;999.90;;;6.70;99.90;;;;;;5029670;28;20057;-65
2022/01/22 07:34:56;;;;;;;1999.90;999.90;;;6.50;99.90;;;;;;5022678;28;20487;-65
2022/01/22 07:37:23;;;;;;;1999.90;999.90;;;6.50;99.90;;;;;;5049145;28;20187;-65
2022/01/22 07:39:49;;;;;;;1999.90;999.90;;;6.70;99.90;;;;;;5049237;28;20049;-65
2022/01/22 07:42:40;;;;;;;1999.90;999.90;;;6.70;99.90;;;;;;5064089;28;20052;-65
2022/01/22 07:45:24;;;;;;;1999.90;999.90;;;6.30;99.90;;;;;;5050575;28;20088;-66
2022/01/22 07:47:57;;;;;;;1999.90;999.90;;;6.70;99.90;;;;;;5047800;28;20498;-65
2022/01/22 07:50:43;;;;;;;1999.90;999.90;;;6.70;99.90;;;;;;5048252;28;20045;-65
2022/01/22 07:53:08;;;;;;;1999.90;999.90;;;6.50;99.90;;;;;;5049699;28;20127;-65
2022/01/22 07:55:35;;;;;;;1999.90;999.90;;;7.20;99.90;;;;;;5064955;28;20041;-65
2022/01/22 07:58:01;;;;;;;1999.90;999.90;;;6.70;99.90;;;;;;5066092;28;20032;-66
2022/01/22 08:00:29;;;;;;;1999.90;999.90;;;6.70;99.90;;;;;;5048680;28;20049;-65
2022/01/22 08:02:54;;;;;;;1999.90;999.90;;;6.40;99.90;;;;;;5048451;28;20045;-65
2022/01/22 08:05:46;;;;;;;1999.90;999.90;;;6.50;99.90;;;;;;5049929;28;20053;-65
2022/01/22 08:08:30;;;;;;;1999.90;999.90;;;6.50;99.90;;;;;;5044600;28;20137;-65
2022/01/22 08:11:29;;;;;;;1999.90;999.90;;;6.40;99.90;;;;;;5050587;28;20065;-65
2022/01/22 08:13:55;;;;;;;1999.90;999.90;;;6.60;99.90;;;;;;5051758;28;20475;-65
2022/01/22 08:16:21;;;;;;;1999.90;999.90;;;6.70;99.90;;;;;;5048172;28;20056;-65
2022/01/22 08:18:46;;;;;;;1999.90;999.90;;;6.30;99.90;;;;;;5065357;28;20099;-64
2022/01/22 08:21:13;;;;;;;1999.90;999.90;;;6.40;99.90;;;;;;5049034;28;20052;-65
2022/01/22 08:23:57;;;;;;;1999.90;999.90;;;6.40;99.90;;;;;;5048762;28;20465;-65
2022/01/22 08:26:47;;;;;;;1999.90;999.90;;;6.50;99.90;;;;;;5032143;28;20151;-65
2022/01/22 08:29:19;;;;;;;1999.90;999.90;;;6.50;99.90;;;;;;5048787;28;20124;-65
2022/01/22 08:32:03;;;;;;;1999.90;999.90;;;6.40;99.90;;;;;;5049088;28;20579;-65
2022/01/22 08:37:15;;;;;;;1999.90;999.90;;;6.30;99.90;;;;;;5048188;28;20053;-65
2022/01/22 08:39:43;;;;;;;1999.90;999.90;;;6.40;99.90;;;;;;5049816;28;20052;-65
2022/01/22 08:42:08;;;;;;;1999.90;999.90;;;6.30;99.90;;;;;;5050630;28;20037;-66
2022/01/22 08:44:34;;;;;;;1999.90;999.90;;;6.60;99.90;;;;;;5048524;28;20064;-65
2022/01/22 08:47:03;;;;;;;1999.90;999.90;;;6.40;99.90;;;;;;5048889;28;20514;-65
2022/01/22 08:49:28;;;;;;;1999.90;999.90;;;6.40;99.90;;;;;;5032294;28;20445;-66
2022/01/22 08:52:09;;;;;;;1999.90;999.90;;;6.50;99.90;;;;;;5031576;28;20063;-65
2022/01/22 08:54:35;;;;;;;1999.90;999.90;;;6.20;99.90;;;;;;5048770;28;20486;-65
2022/01/22 08:57:01;;;;;;;1999.90;999.90;;;6.40;99.90;;;;;;5048899;28;20133;-65
2022/01/22 08:59:27;;;;;;;1999.90;999.90;;;6.30;99.90;;;;;;5048404;28;20080;-65
2022/01/22 09:01:57;;;;;;;1999.90;999.90;;;6.50;99.90;;;;;;5048504;28;20986;-66
2022/01/22 09:04:39;;;;;;;1999.90;999.90;;;6.70;99.90;;;;;;5050217;28;20475;-65
2022/01/22 09:07:14;;;;;;;1999.90;999.90;;;6.20;99.90;;;;;;5052195;28;20135;-66
2022/01/22 09:09:52;;;;;;;1999.90;999.90;;;6.50;99.90;;;;;;5052125;28;20040;-65
2022/01/22 09:12:21;;;;;;;1999.90;999.90;;;6.40;99.90;;;;;;5051421;28;20040;-66
2022/01/22 09:14:53;;;;;;;1999.90;999.90;;;6.60;99.90;;;;;;5057992;28;20041;-65
2022/01/22 09:17:20;;;;;;;1999.90;999.90;;;6.30;99.90;;;;;;5065248;28;20053;-65
2022/01/22 09:19:47;;;;;;;1999.90;999.90;;;6.30;99.90;;;;;;5052830;28;20045;-65
2022/01/22 09:22:17;;;;;;;1999.90;999.90;;;6.90;99.90;;;;;;5054167;28;20107;-65
2022/01/22 09:24:46;;;;;;;1999.90;999.90;;;6.30;99.90;;;;;;5046190;28;20048;-65
2022/01/22 09:27:15;;;;;;;1999.90;999.90;;;6.30;99.90;;;;;;5053385;28;20052;-65
2022/01/22 09:29:41;;;;;;;1999.90;999.90;;;6.40;99.90;;;;;;5052995;28;20120;-65
2022/01/22 09:32:07;;;;;;;1999.90;999.90;;;6.70;99.90;;;;;;5039560;28;20553;-65
2022/01/22 09:34:52;;;;;;;1999.90;999.90;;;6.40;99.90;;;;;;5046258;28;20056;-65
2022/01/22 09:37:27;;;;;;;1999.90;999.90;;;6.40;99.90;;;;;;5053270;28;20053;-65
2022/01/22 09:40:13;;;;;;;1999.90;999.90;;;6.50;99.90;;;;;;5053137;28;20116;-65
2022/01/22 09:42:59;;;;;;;1999.90;999.90;;;6.50;99.90;;;;;;5054124;28;20045;-65
2022/01/22 09:45:33;;;;;;;1999.90;999.90;;;6.90;99.90;;;;;;5033556;28;20053;-65
2022/01/22 09:48:08;;;;;;;1999.90;999.90;;;7.00;99.90;;;;;;5033998;28;20053;-66
2022/01/22 09:50:39;;;;;;;1999.90;999.90;;;6.50;99.90;;;;;;5038795;28;20048;-66
2022/01/22 09:53:21;;;;;;;1999.90;999.90;;;6.80;99.90;;;;;;5070412;28;20186;-66
2022/01/22 09:56:06;;;;;;;1999.90;999.90;;;6.70;99.90;;;;;;5054294;28;20056;-66
2022/01/22 09:58:39;;;;;;;1999.90;999.90;;;6.90;99.90;;;;;;5053418;28;20045;-65
2022/01/22 10:01:28;;;;;;;1999.90;999.90;;;6.90;99.90;;;;;;5036212;28;20054;-65
2022/01/22 10:03:59;;;;;;;1999.90;999.90;;;6.60;99.90;;;;;;5053695;28;20648;-65
2022/01/22 10:06:49;;;;;;;1999.90;999.90;;;7.00;99.90;;;;;;5054717;28;20056;-65
2022/01/22 10:09:46;;;;;;;1999.90;999.90;;;7.20;99.90;;;;;;5068732;28;20052;-65
2022/01/22 10:12:50;;;;;;;1999.90;999.90;;;7.10;99.90;;;;;;5067328;28;20099;-65
2022/01/22 10:15:35;;;;;;;1999.90;999.90;;;7.30;99.90;;;;;;5064598;28;20484;-65
2022/01/22 10:18:04;;;;;;;1999.90;999.90;;;6.90;99.90;;;;;;5056470;28;20032;-66
2022/01/22 10:20:32;;;;;;;1999.90;999.90;;;6.90;99.90;;;;;;5054070;28;20451;-65
2022/01/22 10:23:01;;;;;;;1999.90;999.90;;;7.10;99.90;;;;;;5053251;28;20049;-65
2022/01/22 10:25:32;;;;;;;1999.90;999.90;;;6.90;99.90;;;;;;5054455;28;20116;-66
2022/01/22 10:28:01;;;;;;;1999.90;999.90;;;6.90;99.90;;;;;;5034596;28;20431;-66
2022/01/22 10:30:35;;;;;;;1999.90;999.90;;;6.70;99.90;;;;;;5033326;28;20111;-65
2022/01/22 10:33:22;;;;;;;1999.90;999.90;;;6.80;99.90;;;;;;5034850;28;20075;-65
2022/01/22 10:36:23;;;;;;;1999.90;999.90;;;6.80;99.90;;;;;;5068758;28;20127;-65
2022/01/22 10:39:24;;;;;;;1999.90;999.90;;;6.80;99.90;;;;;;5074029;28;20045;-65
2022/01/22 10:41:50;;;;;;;1999.90;999.90;;;6.80;99.90;;;;;;5074094;28;20052;-66
2022/01/22 10:44:21;;;;;;;1999.90;999.90;;;6.90;99.90;;;;;;5061896;28;20041;-65
2022/01/22 10:46:51;;;;;;;1999.90;999.90;;;7.20;99.90;;;;;;5048039;28;20045;-65
2022/01/22 10:49:23;;;;;;;1999.90;999.90;;;7.30;99.90;;;;;;5053739;28;20110;-65
2022/01/22 10:51:49;;;;;;;1999.90;999.90;;;6.80;99.90;;;;;;5069525;28;20076;-65
2022/01/22 10:54:20;;;;;;;1999.90;999.90;;;6.80;99.90;;;;;;5072149;28;20044;-64
2022/01/22 10:56:46;;;;;;;1999.90;999.90;;;6.90;99.90;;;;;;5071117;28;20048;-65
2022/01/22 10:59:16;;;;;;;1999.90;999.90;;;7.00;99.90;;;;;;5052161;28;20041;-64
2022/01/22 11:01:43;;;;;;;1999.90;999.90;;;7.10;99.90;;;;;;5058031;28;20064;-65
2022/01/22 11:04:10;;;;;;;1999.90;999.90;;;7.10;99.90;;;;;;5052477;28;20076;-64
2022/01/22 11:06:38;;;;;;;1999.90;999.90;;;7.20;99.90;;;;;;5052246;28;20049;-65
2022/01/22 11:09:07;;;;;;;1999.90;999.90;;;7.00;99.90;;;;;;5052598;28;20467;-65
2022/01/22 11:11:38;;;;;;;1999.90;999.90;;;7.00;99.90;;;;;;5052874;28;20081;-65
2022/01/22 11:14:08;;;;;;;1999.90;999.90;;;7.00;99.90;;;;;;5045815;28;20051;-65
2022/01/22 11:16:39;;;;;;;1999.90;999.90;;;7.00;99.90;;;;;;5038368;28;20107;-65
2022/01/22 11:19:08;;;;;;;1999.90;999.90;;;7.00;99.90;;;;;;5056316;28;20395;-64
2022/01/22 11:21:37;;;;;;;1999.90;999.90;;;7.10;99.90;;;;;;5053806;28;20080;-65
2022/01/22 11:24:04;;;;;;;1999.90;999.90;;;7.10;99.90;;;;;;5052945;28;20084;-65
2022/01/22 11:26:30;;;;;;;1999.90;999.90;;;7.20;99.90;;;;;;5052165;28;20111;-65
2022/01/22 11:28:57;;;;;;;1999.90;999.90;;;7.20;99.90;;;;;;5066049;28;20084;-64
2022/01/22 11:31:25;;;;;;;1999.90;999.90;;;7.20;99.90;;;;;;5072998;28;20127;-65
2022/01/22 11:33:53;;;;;;;1999.90;999.90;;;7.20;99.90;;;;;;5072472;28;20135;-65
2022/01/22 11:36:24;;;;;;;1999.90;999.90;;;7.10;99.90;;;;;;5072696;28;20443;-65
2022/01/22 11:38:58;;;;;;;1999.90;999.90;;;7.10;99.90;;;;;;5072964;28;20047;-65
2022/01/22 11:41:24;;;;;;;1999.90;999.90;;;7.10;99.90;;;;;;5072038;28;20773;-65
2022/01/22 11:46:36;;;;;;;1999.90;999.90;;;7.10;99.90;;;;;;5066774;28;20067;-65
2022/01/22 11:49:12;;;;;;;1999.90;999.90;;;7.00;99.90;;;;;;5052002;28;20072;-64
2022/01/22 11:51:38;;;;;;;1999.90;999.90;;;7.00;99.90;;;;;;5067737;28;20091;-65
2022/01/22 11:54:05;;;;;;;1999.90;999.90;;;6.90;99.90;;;;;;5070500;28;20106;-65
2022/01/22 11:56:41;;;;;;;1999.90;999.90;;;6.90;99.90;;;;;;5072790;28;20498;-65
2022/01/22 11:59:15;;;;;;;1999.90;999.90;;;6.90;99.90;;;;;;5056717;28;20479;-65
2022/01/22 12:01:50;;;;;;;1999.90;999.90;;;6.80;99.90;;;;;;5052113;28;20049;-65
2022/01/22 12:04:20;;;;;;;1999.90;999.90;;;6.80;99.90;;;;;;5064951;28;20131;-66
2022/01/22 12:07:01;;;;;;;1999.90;999.90;;;6.80;99.90;;;;;;5072408;28;20052;-65
2022/01/22 12:09:34;;;;;;;1999.90;999.90;;;6.80;99.90;;;;;;5058307;28;20474;-65
2022/01/22 12:15:06;;;;;;;1999.90;999.90;;;6.80;99.90;;;;;;5052194;28;20053;-65
2022/01/22 12:17:49;;;;;;;1999.90;999.90;;;6.80;99.90;;;;;;5052548;28;20467;-65
2022/01/22 12:23:11;;;;;;;1999.90;999.90;;;6.80;99.90;;;;;;5036915;28;20049;-65
2022/01/22 12:25:37;;;;;;;1999.90;999.90;;;6.80;99.90;;;;;;5051109;28;20120;-65
2022/01/22 12:28:07;;;;;;;1999.90;999.90;;;6.80;99.90;;;;;;5052453;28;20059;-65
2022/01/22 12:30:36;;;;;;;1999.90;999.90;;;6.80;99.90;;;;;;5050867;28;20045;-64
2022/01/22 12:33:02;;;;;;;1999.90;999.90;;;6.70;99.90;;;;;;5051842;28;20045;-65
2022/01/22 12:35:36;;;;;;;1999.90;999.90;;;6.70;99.90;;;;;;5051864;28;20044;-64
2022/01/22 12:38:28;;;;;;;1999.90;999.90;;;6.70;99.90;;;;;;5050840;28;20045;-65
2022/01/22 12:41:13;;;;;;;1999.90;999.90;;;6.70;99.90;;;;;;5054550;28;20076;-64
2022/01/22 12:43:40;;;;;;;1999.90;999.90;;;6.70;99.90;;;;;;5054864;28;20052;-64
2022/01/22 12:46:06;;;;;;;1999.90;999.90;;;6.60;99.90;;;;;;5056101;28;20048;-64
2022/01/22 12:48:36;;;;;;;1999.90;999.90;;;6.60;99.90;;;;;;5056942;28;20048;-64
2022/01/22 12:51:04;;;;;;;1999.90;999.90;;;6.60;99.90;;;;;;5052291;28;20535;-65
2022/01/22 12:53:31;;;;;;;1999.90;999.90;;;6.60;99.90;;;;;;5055933;28;20056;-65
2022/01/22 12:58:27;;;;;;;1999.90;999.90;;;6.70;99.90;;;;;;5055528;28;20091;-65
2022/01/22 13:01:08;;;;;;;1999.90;999.90;;;6.70;99.90;;;;;;5055371;28;20045;-64
2022/01/22 13:03:38;;;;;;;1999.90;999.90;;;6.70;99.90;;;;;;5053224;28;20056;-65
2022/01/22 13:06:04;;;;;;;1999.90;999.90;;;6.70;99.90;;;;;;5053915;28;20060;-65
2022/01/22 13:09:04;;;;;;;1999.90;999.90;;;6.70;99.90;;;;;;5055423;28;20417;-65
2022/01/22 13:11:33;;;;;;;1999.90;999.90;;;6.70;99.90;;;;;;5054201;28;20044;-65
2022/01/22 13:14:00;;;;;;;1999.90;999.90;;;6.80;99.90;;;;;;5056809;28;20041;-65
2022/01/22 13:16:26;;;;;;;1999.90;999.90;;;6.70;99.90;;;;;;5075513;28;20418;-65
2022/01/22 13:19:00;;;;;;;1999.90;999.90;;;6.80;99.90;;;;;;5069580;28;20068;-65
2022/01/22 13:21:29;;;;;;;1999.90;999.90;;;6.80;99.90;;;;;;5054036;28;20081;-65
2022/01/22 13:23:59;;;;;;;1999.90;999.90;;;6.80;99.90;;;;;;5066729;28;20047;-64
2022/01/22 13:26:51;;;;;;;1999.90;999.90;;;6.80;99.90;;;;;;5064906;28;20518;-64
2022/01/22 13:29:19;;;;;;;1999.90;999.90;;;6.80;99.90;;;;;;5052352;28;20100;-65
2022/01/22 13:32:12;;;;;;;1999.90;999.90;;;6.80;99.90;;;;;;5051923;28;20045;-64
2022/01/22 13:40:28;;;;;;;1999.90;999.90;;;6.80;99.90;;;;;;5054052;28;20393;-64
2022/01/22 13:48:34;;;;;;;1999.90;999.90;;;6.80;99.90;;;;;;5074058;28;20117;-65
2022/01/22 13:51:01;;;;;;;;;;;6.80;99.90;;;;;;5068854;28;20056;-65
2022/01/22 13:53:27;;;;;;;1999.90;999.90;;;6.80;99.90;;;;;;5054933;28;19968;-65
2022/01/22 13:56:05;;;;;;;1999.90;999.90;;;6.70;99.90;;;;;;5040940;28;20056;-64
2022/01/22 13:58:30;;;;;;;1999.90;999.90;;;6.80;99.90;;;;;;5047850;28;20044;-64
2022/01/22 14:01:04;;;;;;;1999.90;999.90;;;6.70;99.90;;;;;;5073813;28;20550;-64
2022/01/22 14:03:37;;;;;;;1999.90;999.90;;;6.70;99.90;;;;;;5057294;28;20043;-64
2022/01/22 14:06:04;;;;;;;1999.90;999.90;;;6.70;99.90;;;;;;5072784;28;20049;-64
2022/01/22 14:08:33;;;;;;;1999.90;999.90;;;6.70;99.90;;;;;;5073270;28;20048;-65